sensor_id;sensor_type;location;lat;lon;timestamp;pressure;altitude;pressure_sealevel;temperature;humidity
21111;BME280;10713;51.912;4.494;2023-03-14T00:02:21;98836.09;;;11.20;100.00
21111;BME280;10713;51.912;4.494;2023-03-14T00:04:47;98837.50;;;11.13;100.00
21111;BME280;10713;51.912;4.494;2023-03-14T00:07:13;98828.84;;;11.11;100.00
21111;BME280;10713;51.912;4.494;2023-03-14T00:09:38;98832.66;;;11.07;100.00
21111;BME280;10713;51.912;4.494;2023-03-14T00:12:04;98834.91;;;11.00;100.00
21111;BME280;10713;51.912;4.494;2023-03-14T00:14:32;98836.41;;;10.92;100.00
21111;BME280;10713;51.912;4.494;2023-03-14T00:16:57;98825.25;;;10.88;100.00
21111;BME280;10713;51.912;4.494;2023-03-14T00:19:22;98832.09;;;10.91;100.00
21111;BME280;10713;51.912;4.494;2023-03-14T00:21:48;98839.19;;;10.90;100.00
21111;BME280;10713;51.912;4.494;2023-03-14T00:24:13;98840.97;;;10.90;100.00
21111;BME280;10713;51.912;4.494;2023-03-14T00:26:39;98845.31;;;10.91;100.00
21111;BME280;10713;51.912;4.494;2023-03-14T00:29:04;98831.13;;;10.92;100.00
21111;BME280;10713;51.912;4.494;2023-03-14T00:31:29;98844.56;;;10.89;100.00
21111;BME280;10713;51.912;4.494;2023-03-14T00:33:55;98856.09;;;10.88;100.00
21111;BME280;10713;51.912;4.494;2023-03-14T00:36:21;98836.69;;;10.76;100.00
21111;BME280;10713;51.912;4.494;2023-03-14T00:38:48;98857.81;;;10.76;100.00
21111;BME280;10713;51.912;4.494;2023-03-14T00:41:18;98834.06;;;10.76;100.00
21111;BME280;10713;51.912;4.494;2023-03-14T00:43:44;98840.19;;;10.76;100.00
21111;BME280;10713;51.912;4.494;2023-03-14T00:46:11;98852.53;;;10.76;100.00
21111;BME280;10713;51.912;4.494;2023-03-14T00:48:37;98856.09;;;10.75;100.00
21111;BME280;10713;51.912;4.494;2023-03-14T00:51:04;98875.63;;;10.72;100.00
21111;BME280;10713;51.912;4.494;2023-03-14T00:53:30;98870.59;;;10.69;100.00
21111;BME280;10713;51.912;4.494;2023-03-14T00:55:55;98883.34;;;10.75;100.00
21111;BME280;10713;51.912;4.494;2023-03-14T00:58:21;98873.97;;;10.71;100.00
21111;BME280;10713;51.912;4.494;2023-03-14T01:00:47;98874.06;;;10.70;100.00
21111;BME280;10713;51.912;4.494;2023-03-14T01:03:13;98877.44;;;10.72;100.00
21111;BME280;10713;51.912;4.494;2023-03-14T01:05:39;98874.59;;;10.75;100.00
21111;BME280;10713;51.912;4.494;2023-03-14T01:08:05;98847.03;;;10.79;100.00
21111;BME280;10713;51.912;4.494;2023-03-14T01:10:32;98839.97;;;10.79;100.00
21111;BME280;10713;51.912;4.494;2023-03-14T01:12:58;98834.91;;;10.76;100.00
21111;BME280;10713;51.912;4.494;2023-03-14T01:15:23;98842.06;;;10.74;100.00
21111;BME280;10713;51.912;4.494;2023-03-14T01:17:48;98836.28;;;10.69;100.00
21111;BME280;10713;51.912;4.494;2023-03-14T01:20:16;98844.53;;;10.65;100.00
21111;BME280;10713;51.912;4.494;2023-03-14T01:22:42;98849.69;;;10.66;100.00
21111;BME280;10713;51.912;4.494;2023-03-14T01:25:16;98854.66;;;10.71;100.00
21111;BME280;10713;51.912;4.494;2023-03-14T01:27:41;98854.66;;;10.71;100.00
21111;BME280;10713;51.912;4.494;2023-03-14T01:30:08;98848.84;;;10.66;100.00
21111;BME280;10713;51.912;4.494;2023-03-14T01:32:34;98857.59;;;10.66;100.00
21111;BME280;10713;51.912;4.494;2023-03-14T01:34:59;98849.47;;;10.69;100.00
21111;BME280;10713;51.912;4.494;2023-03-14T01:37:25;98842.91;;;10.75;100.00
21111;BME280;10713;51.912;4.494;2023-03-14T01:39:50;98845.91;;;10.70;100.00
21111;BME280;10713;51.912;4.494;2023-03-14T01:42:16;98851.78;;;10.74;100.00
21111;BME280;10713;51.912;4.494;2023-03-14T01:44:59;98844.63;;;10.76;100.00
21111;BME280;10713;51.912;4.494;2023-03-14T01:47:25;98837.97;;;10.70;100.00
21111;BME280;10713;51.912;4.494;2023-03-14T01:49:57;98834.38;;;10.71;100.00
21111;BME280;10713;51.912;4.494;2023-03-14T01:52:30;98836.69;;;10.76;100.00
21111;BME280;10713;51.912;4.494;2023-03-14T01:55:07;98837.03;;;10.71;100.00
21111;BME280;10713;51.912;4.494;2023-03-14T01:57:58;98834.16;;;10.74;100.00
21111;BME280;10713;51.912;4.494;2023-03-14T02:00:24;98826.69;;;10.68;100.00
21111;BME280;10713;51.912;4.494;2023-03-14T02:02:53;98825.09;;;10.66;100.00
21111;BME280;10713;51.912;4.494;2023-03-14T02:05:28;98828.81;;;10.63;100.00
21111;BME280;10713;51.912;4.494;2023-03-14T02:07:58;98826.91;;;10.65;100.00
21111;BME280;10713;51.912;4.494;2023-03-14T02:10:27;98824.88;;;10.69;100.00
21111;BME280;10713;51.912;4.494;2023-03-14T02:12:56;98819.50;;;10.70;100.00
21111;BME280;10713;51.912;4.494;2023-03-14T02:15:22;98830.47;;;10.77;100.00
21111;BME280;10713;51.912;4.494;2023-03-14T02:17:48;98820.22;;;10.72;100.00
21111;BME280;10713;51.912;4.494;2023-03-14T02:22:44;98810.41;;;10.74;100.00
21111;BME280;10713;51.912;4.494;2023-03-14T02:27:49;98812.75;;;10.66;100.00
21111;BME280;10713;51.912;4.494;2023-03-14T02:30:19;98808.44;;;10.65;100.00
21111;BME280;10713;51.912;4.494;2023-03-14T02:32:52;98805.81;;;10.65;100.00
21111;BME280;10713;51.912;4.494;2023-03-14T02:35:26;98806.03;;;10.62;100.00
21111;BME280;10713;51.912;4.494;2023-03-14T02:38:02;98811.91;;;10.66;100.00
21111;BME280;10713;51.912;4.494;2023-03-14T02:40:29;98817.06;;;10.67;100.00
21111;BME280;10713;51.912;4.494;2023-03-14T02:42:55;98808.00;;;10.71;100.00
21111;BME280;10713;51.912;4.494;2023-03-14T02:47:59;98794.91;;;10.70;100.00
21111;BME280;10713;51.912;4.494;2023-03-14T02:50:29;98795.34;;;10.64;100.00
21111;BME280;10713;51.912;4.494;2023-03-14T02:52:55;98793.38;;;10.54;100.00
21111;BME280;10713;51.912;4.494;2023-03-14T02:55:22;98789.28;;;10.50;100.00
21111;BME280;10713;51.912;4.494;2023-03-14T02:57:47;98794.03;;;10.45;100.00
21111;BME280;10713;51.912;4.494;2023-03-14T03:00:13;98797.50;;;10.46;100.00
21111;BME280;10713;51.912;4.494;2023-03-14T03:02:38;98787.47;;;10.51;100.00
21111;BME280;10713;51.912;4.494;2023-03-14T03:05:04;98785.56;;;10.53;100.00
21111;BME280;10713;51.912;4.494;2023-03-14T03:07:30;98783.66;;;10.55;100.00
21111;BME280;10713;51.912;4.494;2023-03-14T03:09:55;98784.41;;;10.57;100.00
21111;BME280;10713;51.912;4.494;2023-03-14T03:12:21;98781.63;;;10.58;100.00
21111;BME280;10713;51.912;4.494;2023-03-14T03:14:46;98784.41;;;10.57;100.00
21111;BME280;10713;51.912;4.494;2023-03-14T03:17:11;98785.38;;;10.56;100.00
21111;BME280;10713;51.912;4.494;2023-03-14T03:19:37;98781.53;;;10.60;100.00
21111;BME280;10713;51.912;4.494;2023-03-14T03:22:02;98778.81;;;10.62;100.00
21111;BME280;10713;51.912;4.494;2023-03-14T03:24:28;98777.63;;;10.53;100.00
21111;BME280;10713;51.912;4.494;2023-03-14T03:26:53;98784.28;;;10.58;100.00
21111;BME280;10713;51.912;4.494;2023-03-14T03:29:19;98780.78;;;10.58;100.00
21111;BME280;10713;51.912;4.494;2023-03-14T03:31:44;98785.75;;;10.63;100.00
21111;BME280;10713;51.912;4.494;2023-03-14T03:34:13;98780.25;;;10.66;100.00
21111;BME280;10713;51.912;4.494;2023-03-14T03:36:39;98778.56;;;10.65;100.00
21111;BME280;10713;51.912;4.494;2023-03-14T03:39:04;98773.41;;;10.63;100.00
21111;BME280;10713;51.912;4.494;2023-03-14T03:41:30;98767.06;;;10.66;100.00
21111;BME280;10713;51.912;4.494;2023-03-14T03:43:56;98774.84;;;10.67;100.00
21111;BME280;10713;51.912;4.494;2023-03-14T03:46:22;98767.28;;;10.63;100.00
21111;BME280;10713;51.912;4.494;2023-03-14T03:48:47;98778.56;;;10.65;100.00
21111;BME280;10713;51.912;4.494;2023-03-14T03:51:14;98776.88;;;10.64;100.00
21111;BME280;10713;51.912;4.494;2023-03-14T03:53:41;98776.88;;;10.64;100.00
21111;BME280;10713;51.912;4.494;2023-03-14T03:56:07;98775.41;;;10.59;100.00
21111;BME280;10713;51.912;4.494;2023-03-14T03:58:33;98781.31;;;10.63;100.00
21111;BME280;10713;51.912;4.494;2023-03-14T04:00:58;98782.06;;;10.65;100.00
21111;BME280;10713;51.912;4.494;2023-03-14T04:03:23;98779.19;;;10.68;100.00
21111;BME280;10713;51.912;4.494;2023-03-14T04:06:00;98778.13;;;10.71;100.00
21111;BME280;10713;51.912;4.494;2023-03-14T04:08:26;98769.84;;;10.75;100.00
21111;BME280;10713;51.912;4.494;2023-03-14T04:10:57;98778.50;;;10.77;100.00
21111;BME280;10713;51.912;4.494;2023-03-14T04:13:23;98775.34;;;10.72;100.00
21111;BME280;10713;51.912;4.494;2023-03-14T04:15:49;98775.78;;;10.79;100.00
21111;BME280;10713;51.912;4.494;2023-03-14T04:18:14;98776.84;;;10.76;100.00
21111;BME280;10713;51.912;4.494;2023-03-14T04:20:40;98772.41;;;10.77;100.00
21111;BME280;10713;51.912;4.494;2023-03-14T04:23:05;98779.41;;;10.65;100.00
21111;BME280;10713;51.912;4.494;2023-03-14T04:25:30;98780.03;;;10.69;100.00
21111;BME280;10713;51.912;4.494;2023-03-14T04:27:56;98772.66;;;10.61;100.00
21111;BME280;10713;51.912;4.494;2023-03-14T04:30:21;98776.72;;;10.54;100.00
21111;BME280;10713;51.912;4.494;2023-03-14T04:32:47;98769.53;;;10.56;100.00
21111;BME280;10713;51.912;4.494;2023-03-14T04:35:12;98782.59;;;10.57;100.00
21111;BME280;10713;51.912;4.494;2023-03-14T04:37:37;98772.38;;;10.53;100.00
21111;BME280;10713;51.912;4.494;2023-03-14T04:40:03;98766.69;;;10.46;100.00
21111;BME280;10713;51.912;4.494;2023-03-14T04:42:31;98759.63;;;10.47;100.00
21111;BME280;10713;51.912;4.494;2023-03-14T04:44:57;98768.59;;;10.44;100.00
21111;BME280;10713;51.912;4.494;2023-03-14T04:47:22;98763.53;;;10.41;100.00
21111;BME280;10713;51.912;4.494;2023-03-14T04:49:47;98769.69;;;10.42;100.00
21111;BME280;10713;51.912;4.494;2023-03-14T04:52:13;98767.88;;;10.42;100.00
21111;BME280;10713;51.912;4.494;2023-03-14T04:54:38;98769.69;;;10.42;100.00
21111;BME280;10713;51.912;4.494;2023-03-14T04:57:03;98762.69;;;10.41;100.00
21111;BME280;10713;51.912;4.494;2023-03-14T04:59:29;98766.19;;;10.41;100.00
21111;BME280;10713;51.912;4.494;2023-03-14T05:01:54;98768.28;;;10.49;100.00
21111;BME280;10713;51.912;4.494;2023-03-14T05:04:20;98767.03;;;10.42;100.00
21111;BME280;10713;51.912;4.494;2023-03-14T05:06:45;98782.13;;;10.40;100.00
21111;BME280;10713;51.912;4.494;2023-03-14T05:09:10;98774.22;;;10.40;100.00
21111;BME280;10713;51.912;4.494;2023-03-14T05:11:36;98776.00;;;10.39;100.00
21111;BME280;10713;51.912;4.494;2023-03-14T05:14:01;98778.00;;;10.23;100.00
21111;BME280;10713;51.912;4.494;2023-03-14T05:16:26;98775.47;;;10.21;100.00
21111;BME280;10713;51.912;4.494;2023-03-14T05:18:52;98775.25;;;10.24;100.00
21111;BME280;10713;51.912;4.494;2023-03-14T05:21:17;98758.81;;;10.21;100.00
21111;BME280;10713;51.912;4.494;2023-03-14T05:23:42;98766.72;;;10.21;100.00
21111;BME280;10713;51.912;4.494;2023-03-14T05:26:08;98773.06;;;10.18;100.00
21111;BME280;10713;51.912;4.494;2023-03-14T05:28:33;98766.94;;;10.18;100.00
21111;BME280;10713;51.912;4.494;2023-03-14T05:30:59;98787.41;;;10.14;100.00
21111;BME280;10713;51.912;4.494;2023-03-14T05:33:24;98781.22;;;10.02;100.00
21111;BME280;10713;51.912;4.494;2023-03-14T05:35:49;98789.56;;;9.96;100.00
21111;BME280;10713;51.912;4.494;2023-03-14T05:38:15;98822.97;;;9.83;100.00
21111;BME280;10713;51.912;4.494;2023-03-14T05:40:40;98858.56;;;9.76;100.00
21111;BME280;10713;51.912;4.494;2023-03-14T05:43:06;98861.53;;;9.71;100.00
21111;BME280;10713;51.912;4.494;2023-03-14T05:45:33;98864.78;;;9.62;100.00
21111;BME280;10713;51.912;4.494;2023-03-14T05:47:59;98847.59;;;9.56;100.00
21111;BME280;10713;51.912;4.494;2023-03-14T05:50:24;98878.88;;;9.61;100.00
21111;BME280;10713;51.912;4.494;2023-03-14T05:52:50;98880.88;;;9.57;100.00
21111;BME280;10713;51.912;4.494;2023-03-14T05:55:15;98887.41;;;9.52;100.00
21111;BME280;10713;51.912;4.494;2023-03-14T05:57:40;98893.47;;;9.39;100.00
21111;BME280;10713;51.912;4.494;2023-03-14T06:00:06;98897.84;;;9.26;100.00
21111;BME280;10713;51.912;4.494;2023-03-14T06:02:32;98913.28;;;9.18;100.00
21111;BME280;10713;51.912;4.494;2023-03-14T06:04:57;98919.25;;;9.07;100.00
21111;BME280;10713;51.912;4.494;2023-03-14T06:07:22;98926.66;;;9.15;100.00
21111;BME280;10713;51.912;4.494;2023-03-14T06:09:48;98929.13;;;9.03;100.00
21111;BME280;10713;51.912;4.494;2023-03-14T06:12:13;98926.28;;;9.07;100.00
21111;BME280;10713;51.912;4.494;2023-03-14T06:14:38;98932.09;;;9.12;100.00
21111;BME280;10713;51.912;4.494;2023-03-14T06:17:04;98938.13;;;9.14;100.00
21111;BME280;10713;51.912;4.494;2023-03-14T06:19:29;98943.13;;;9.04;100.00
21111;BME280;10713;51.912;4.494;2023-03-14T06:21:54;98945.28;;;8.97;100.00
21111;BME280;10713;51.912;4.494;2023-03-14T06:24:20;98950.94;;;9.06;100.00
21111;BME280;10713;51.912;4.494;2023-03-14T06:26:45;98961.66;;;9.02;100.00
21111;BME280;10713;51.912;4.494;2023-03-14T06:29:11;98965.22;;;9.01;100.00
21111;BME280;10713;51.912;4.494;2023-03-14T06:31:36;98967.00;;;9.01;100.00
21111;BME280;10713;51.912;4.494;2023-03-14T06:34:02;98969.75;;;8.99;100.00
21111;BME280;10713;51.912;4.494;2023-03-14T06:36:27;98986.28;;;9.01;100.00
21111;BME280;10713;51.912;4.494;2023-03-14T06:38:53;98996.81;;;9.01;100.00
21111;BME280;10713;51.912;4.494;2023-03-14T06:41:18;99005.38;;;8.91;100.00
21111;BME280;10713;51.912;4.494;2023-03-14T06:43:44;99011.66;;;8.74;100.00
21111;BME280;10713;51.912;4.494;2023-03-14T06:46:09;99031.94;;;8.72;100.00
21111;BME280;10713;51.912;4.494;2023-03-14T06:48:34;99038.72;;;8.62;100.00
21111;BME280;10713;51.912;4.494;2023-03-14T06:51:00;99049.03;;;8.50;100.00
21111;BME280;10713;51.912;4.494;2023-03-14T06:53:25;99049.69;;;8.38;100.00
21111;BME280;10713;51.912;4.494;2023-03-14T06:55:51;99057.94;;;8.32;100.00
21111;BME280;10713;51.912;4.494;2023-03-14T06:58:16;99074.56;;;8.32;100.00
21111;BME280;10713;51.912;4.494;2023-03-14T07:00:42;99078.31;;;8.28;100.00
21111;BME280;10713;51.912;4.494;2023-03-14T07:03:07;99088.81;;;8.28;100.00
21111;BME280;10713;51.912;4.494;2023-03-14T07:05:33;99094.16;;;8.27;100.00
21111;BME280;10713;51.912;4.494;2023-03-14T07:07:58;99099.09;;;8.33;100.00
21111;BME280;10713;51.912;4.494;2023-03-14T07:10:23;99102.38;;;8.37;100.00
21111;BME280;10713;51.912;4.494;2023-03-14T07:12:49;99108.47;;;8.37;100.00
21111;BME280;10713;51.912;4.494;2023-03-14T07:15:14;99118.06;;;8.38;100.00
21111;BME280;10713;51.912;4.494;2023-03-14T07:17:40;99129.47;;;8.39;100.00
21111;BME280;10713;51.912;4.494;2023-03-14T07:20:06;99136.31;;;8.41;100.00
21111;BME280;10713;51.912;4.494;2023-03-14T07:22:32;99144.97;;;8.43;100.00
21111;BME280;10713;51.912;4.494;2023-03-14T07:24:57;99146.50;;;8.47;100.00
21111;BME280;10713;51.912;4.494;2023-03-14T07:27:23;99161.94;;;8.53;100.00
21111;BME280;10713;51.912;4.494;2023-03-14T07:29:48;99168.44;;;8.62;100.00
21111;BME280;10713;51.912;4.494;2023-03-14T07:32:13;99183.28;;;8.63;100.00
21111;BME280;10713;51.912;4.494;2023-03-14T07:34:42;99187.16;;;8.72;100.00
21111;BME280;10713;51.912;4.494;2023-03-14T07:37:08;99186.13;;;8.74;100.00
21111;BME280;10713;51.912;4.494;2023-03-14T07:39:34;99198.50;;;8.72;100.00
21111;BME280;10713;51.912;4.494;2023-03-14T07:42:00;99208.97;;;8.74;100.00
21111;BME280;10713;51.912;4.494;2023-03-14T07:44:25;99224.09;;;8.70;100.00
21111;BME280;10713;51.912;4.494;2023-03-14T07:46:51;99231.63;;;8.61;100.00
21111;BME280;10713;51.912;4.494;2023-03-14T07:49:16;99239.28;;;8.65;100.00
21111;BME280;10713;51.912;4.494;2023-03-14T07:51:42;99243.06;;;8.75;100.00
21111;BME280;10713;51.912;4.494;2023-03-14T07:54:11;99256.72;;;8.82;100.00
21111;BME280;10713;51.912;4.494;2023-03-14T07:56:37;99260.81;;;8.88;100.00
21111;BME280;10713;51.912;4.494;2023-03-14T07:59:02;99279.28;;;8.86;100.00
21111;BME280;10713;51.912;4.494;2023-03-14T08:01:28;99297.56;;;8.73;100.00
21111;BME280;10713;51.912;4.494;2023-03-14T08:03:54;99309.53;;;8.47;100.00
21111;BME280;10713;51.912;4.494;2023-03-14T08:06:19;99306.56;;;8.04;100.00
21111;BME280;10713;51.912;4.494;2023-03-14T08:08:45;99322.13;;;7.92;100.00
21111;BME280;10713;51.912;4.494;2023-03-14T08:11:10;99341.22;;;7.78;100.00
21111;BME280;10713;51.912;4.494;2023-03-14T08:13:36;99358.09;;;7.74;100.00
21111;BME280;10713;51.912;4.494;2023-03-14T08:16:03;99377.47;;;7.71;100.00
21111;BME280;10713;51.912;4.494;2023-03-14T08:18:28;99387.69;;;7.60;100.00
21111;BME280;10713;51.912;4.494;2023-03-14T08:20:53;99399.50;;;7.51;100.00
21111;BME280;10713;51.912;4.494;2023-03-14T08:23:19;99409.78;;;7.56;100.00
21111;BME280;10713;51.912;4.494;2023-03-14T08:25:44;99396.41;;;7.60;100.00
21111;BME280;10713;51.912;4.494;2023-03-14T08:28:10;99426.84;;;7.82;100.00
21111;BME280;10713;51.912;4.494;2023-03-14T08:30:35;99435.94;;;7.92;100.00
21111;BME280;10713;51.912;4.494;2023-03-14T08:33:00;99440.03;;;7.98;100.00
21111;BME280;10713;51.912;4.494;2023-03-14T08:35:26;99454.66;;;7.86;100.00
21111;BME280;10713;51.912;4.494;2023-03-14T08:37:51;99462.63;;;7.84;100.00
21111;BME280;10713;51.912;4.494;2023-03-14T08:40:17;99491.75;;;7.80;100.00
21111;BME280;10713;51.912;4.494;2023-03-14T08:42:43;99496.69;;;7.68;100.00
21111;BME280;10713;51.912;4.494;2023-03-14T08:45:12;99511.31;;;7.55;100.00
21111;BME280;10713;51.912;4.494;2023-03-14T08:47:37;99527.59;;;7.44;100.00
21111;BME280;10713;51.912;4.494;2023-03-14T08:50:04;99536.28;;;7.28;100.00
21111;BME280;10713;51.912;4.494;2023-03-14T08:52:30;99530.81;;;7.13;100.00
21111;BME280;10713;51.912;4.494;2023-03-14T08:54:56;99550.97;;;7.13;100.00
21111;BME280;10713;51.912;4.494;2023-03-14T08:57:21;99551.34;;;7.04;100.00
21111;BME280;10713;51.912;4.494;2023-03-14T08:59:47;99565.13;;;7.09;100.00
21111;BME280;10713;51.912;4.494;2023-03-14T09:02:12;99561.84;;;7.04;100.00
21111;BME280;10713;51.912;4.494;2023-03-14T09:04:38;99570.69;;;7.21;100.00
21111;BME280;10713;51.912;4.494;2023-03-14T09:07:04;99585.66;;;7.38;100.00
21111;BME280;10713;51.912;4.494;2023-03-14T09:09:29;99596.94;;;7.59;100.00
21111;BME280;10713;51.912;4.494;2023-03-14T09:11:56;99597.47;;;7.66;100.00
21111;BME280;10713;51.912;4.494;2023-03-14T09:14:21;99614.88;;;7.87;100.00
21111;BME280;10713;51.912;4.494;2023-03-14T09:16:47;99624.75;;;8.19;100.00
21111;BME280;10713;51.912;4.494;2023-03-14T09:19:12;99622.41;;;8.49;100.00
21111;BME280;10713;51.912;4.494;2023-03-14T09:21:37;99630.91;;;8.89;100.00
21111;BME280;10713;51.912;4.494;2023-03-14T09:24:04;99645.00;;;9.21;100.00
21111;BME280;10713;51.912;4.494;2023-03-14T09:26:30;99650.00;;;9.43;100.00
21111;BME280;10713;51.912;4.494;2023-03-14T09:28:55;99654.81;;;9.35;100.00
21111;BME280;10713;51.912;4.494;2023-03-14T09:31:20;99661.53;;;9.24;100.00
21111;BME280;10713;51.912;4.494;2023-03-14T09:33:46;99672.63;;;8.96;100.00
21111;BME280;10713;51.912;4.494;2023-03-14T09:36:12;99672.69;;;8.60;100.00
21111;BME280;10713;51.912;4.494;2023-03-14T09:38:38;99684.63;;;8.50;100.00
21111;BME280;10713;51.912;4.494;2023-03-14T09:41:13;99695.97;;;8.31;100.00
21111;BME280;10713;51.912;4.494;2023-03-14T09:43:41;99706.72;;;8.46;100.00
21111;BME280;10713;51.912;4.494;2023-03-14T09:46:09;99722.78;;;8.40;100.00
21111;BME280;10713;51.912;4.494;2023-03-14T09:48:36;99733.16;;;8.24;100.00
21111;BME280;10713;51.912;4.494;2023-03-14T09:51:10;99745.88;;;7.95;100.00
21111;BME280;10713;51.912;4.494;2023-03-14T09:53:43;99761.28;;;7.84;100.00
21111;BME280;10713;51.912;4.494;2023-03-14T09:56:16;99769.75;;;7.90;100.00
21111;BME280;10713;51.912;4.494;2023-03-14T09:58:44;99782.47;;;8.00;100.00
21111;BME280;10713;51.912;4.494;2023-03-14T10:01:15;99779.41;;;7.90;100.00
21111;BME280;10713;51.912;4.494;2023-03-14T10:03:42;99790.94;;;7.67;100.00
21111;BME280;10713;51.912;4.494;2023-03-14T10:06:12;99798.88;;;7.65;100.00
21111;BME280;10713;51.912;4.494;2023-03-14T10:08:42;99806.56;;;7.70;100.00
21111;BME280;10713;51.912;4.494;2023-03-14T10:11:18;99817.09;;;7.89;100.00
21111;BME280;10713;51.912;4.494;2023-03-14T10:14:01;99828.22;;;8.15;100.00
21111;BME280;10713;51.912;4.494;2023-03-14T10:16:33;99840.25;;;8.20;100.00
21111;BME280;10713;51.912;4.494;2023-03-14T10:19:04;99837.84;;;8.16;100.00
21111;BME280;10713;51.912;4.494;2023-03-14T10:21:36;99850.09;;;8.15;100.00
21111;BME280;10713;51.912;4.494;2023-03-14T10:26:39;99846.19;;;8.05;100.00
21111;BME280;10713;51.912;4.494;2023-03-14T10:29:11;99855.47;;;7.93;100.00
21111;BME280;10713;51.912;4.494;2023-03-14T10:31:51;99881.06;;;8.08;100.00
21111;BME280;10713;51.912;4.494;2023-03-14T10:34:22;99898.88;;;8.22;100.00
21111;BME280;10713;51.912;4.494;2023-03-14T10:36:52;99894.66;;;8.18;100.00
21111;BME280;10713;51.912;4.494;2023-03-14T10:39:41;99913.31;;;8.12;100.00
21111;BME280;10713;51.912;4.494;2023-03-14T10:42:29;99925.22;;;8.00;100.00
21111;BME280;10713;51.912;4.494;2023-03-14T10:45:20;99934.19;;;7.96;100.00
21111;BME280;10713;51.912;4.494;2023-03-14T10:47:50;99940.47;;;8.12;100.00
21111;BME280;10713;51.912;4.494;2023-03-14T10:50:24;99945.13;;;8.26;100.00
21111;BME280;10713;51.912;4.494;2023-03-14T10:52:53;99957.00;;;8.35;100.00
21111;BME280;10713;51.912;4.494;2023-03-14T10:55:18;99953.81;;;8.28;100.00
21111;BME280;10713;51.912;4.494;2023-03-14T10:57:44;99962.03;;;8.41;100.00
21111;BME280;10713;51.912;4.494;2023-03-14T11:00:18;99974.28;;;8.61;100.00
21111;BME280;10713;51.912;4.494;2023-03-14T11:03:10;99987.25;;;8.66;100.00
21111;BME280;10713;51.912;4.494;2023-03-14T11:08:27;100004.56;;;8.51;100.00
21111;BME280;10713;51.912;4.494;2023-03-14T11:24:55;100047.00;;;10.48;100.00
21111;BME280;10713;51.912;4.494;2023-03-14T11:27:43;100027.88;;;10.60;100.00
21111;BME280;10713;51.912;4.494;2023-03-14T11:35:41;100054.03;;;10.98;100.00
21111;BME280;10713;51.912;4.494;2023-03-14T11:40:36;100080.91;;;10.73;100.00
21111;BME280;10713;51.912;4.494;2023-03-14T11:43:13;100077.09;;;10.62;100.00
21111;BME280;10713;51.912;4.494;2023-03-14T11:45:42;100082.91;;;10.68;100.00
21111;BME280;10713;51.912;4.494;2023-03-14T11:48:17;100099.69;;;10.85;100.00
21111;BME280;10713;51.912;4.494;2023-03-14T11:50:48;100091.28;;;10.76;100.00
21111;BME280;10713;51.912;4.494;2023-03-14T11:56:15;100103.72;;;10.40;100.00
21111;BME280;10713;51.912;4.494;2023-03-14T11:58:52;100109.72;;;10.24;100.00
21111;BME280;10713;51.912;4.494;2023-03-14T12:01:21;100121.34;;;10.03;100.00
21111;BME280;10713;51.912;4.494;2023-03-14T12:03:56;100130.53;;;10.13;100.00
21111;BME280;10713;51.912;4.494;2023-03-14T12:06:49;100131.19;;;10.35;100.00
21111;BME280;10713;51.912;4.494;2023-03-14T12:09:16;100138.03;;;10.57;100.00
21111;BME280;10713;51.912;4.494;2023-03-14T12:11:52;100143.00;;;10.63;100.00
21111;BME280;10713;51.912;4.494;2023-03-14T12:14:37;100145.47;;;10.83;100.00
21111;BME280;10713;51.912;4.494;2023-03-14T12:19:39;100147.81;;;11.23;100.00
21111;BME280;10713;51.912;4.494;2023-03-14T12:24:36;100163.66;;;10.72;100.00
21111;BME280;10713;51.912;4.494;2023-03-14T12:27:04;100154.88;;;10.72;100.00
21111;BME280;10713;51.912;4.494;2023-03-14T12:29:30;100173.13;;;10.76;100.00
21111;BME280;10713;51.912;4.494;2023-03-14T12:32:23;100178.63;;;10.89;100.00
21111;BME280;10713;51.912;4.494;2023-03-14T12:34:50;100181.66;;;11.16;100.00
21111;BME280;10713;51.912;4.494;2023-03-14T12:37:36;100193.97;;;11.16;100.00
21111;BME280;10713;51.912;4.494;2023-03-14T12:40:30;100188.56;;;11.19;96.56
21111;BME280;10713;51.912;4.494;2023-03-14T12:42:57;100182.50;;;11.17;100.00
21111;BME280;10713;51.912;4.494;2023-03-14T12:45:34;100188.97;;;10.94;100.00
21111;BME280;10713;51.912;4.494;2023-03-14T12:48:15;100203.03;;;10.94;100.00
21111;BME280;10713;51.912;4.494;2023-03-14T12:50:46;100206.88;;;10.70;100.00
21111;BME280;10713;51.912;4.494;2023-03-14T12:53:40;100214.34;;;10.62;100.00
21111;BME280;10713;51.912;4.494;2023-03-14T12:56:21;100217.25;;;10.38;100.00
21111;BME280;10713;51.912;4.494;2023-03-14T13:01:32;100201.09;;;9.89;100.00
21111;BME280;10713;51.912;4.494;2023-03-14T13:04:03;100252.06;;;9.69;100.00
21111;BME280;10713;51.912;4.494;2023-03-14T13:06:53;100263.94;;;9.79;100.00
21111;BME280;10713;51.912;4.494;2023-03-14T13:09:50;100281.66;;;9.95;96.08
21111;BME280;10713;51.912;4.494;2023-03-14T13:12:17;100279.53;;;10.03;100.00
21111;BME280;10713;51.912;4.494;2023-03-14T13:14:45;100290.22;;;10.00;95.87
21111;BME280;10713;51.912;4.494;2023-03-14T13:17:13;100305.22;;;9.99;100.00
21111;BME280;10713;51.912;4.494;2023-03-14T13:19:39;100310.25;;;9.85;100.00
21111;BME280;10713;51.912;4.494;2023-03-14T13:22:15;100319.94;;;9.84;100.00
21111;BME280;10713;51.912;4.494;2023-03-14T13:24:42;100325.41;;;9.80;100.00
21111;BME280;10713;51.912;4.494;2023-03-14T13:27:17;100330.47;;;9.84;98.91
21111;BME280;10713;51.912;4.494;2023-03-14T13:29:44;100337.41;;;9.66;97.15
21111;BME280;10713;51.912;4.494;2023-03-14T13:32:18;100345.31;;;9.66;98.28
21111;BME280;10713;51.912;4.494;2023-03-14T13:34:44;100351.19;;;9.73;100.00
21111;BME280;10713;51.912;4.494;2023-03-14T13:37:17;100351.28;;;9.90;100.00
21111;BME280;10713;51.912;4.494;2023-03-14T13:39:50;100360.50;;;10.01;100.00
21111;BME280;10713;51.912;4.494;2023-03-14T13:42:16;100359.38;;;10.06;100.00
21111;BME280;10713;51.912;4.494;2023-03-14T13:44:43;100363.09;;;10.21;100.00